Easter Island, Chile

12:16 PM EASST on January 26, 2015 (GMT -0500)
Mataveri International | Change Station
CLOSE
Current Station
Airport
Location: Easter Island,
Elevation: 154 ft
Nearby Weather Stations

Elev 154 ft 27.16 °S, 109.43 °W | Updated 16 minutes ago

Scattered Clouds
Scattered Clouds
79 °F
Feels Like 79 °F
N
9
Wind Variable Wind from NW

Today
High -- | Low -- °F
--% Chance of Precip.
Yesterday
High -- | Low -- °F
Precip. -- in
7:46 AM 9:13 PM
Waxing Crescent, 45% visible
Pressure 30.12 in
Visibility 6.2 miles
Clouds Scattered Clouds 2000 ft
Dew Point 68 °F
Humidity 69%
Rainfall 0.00 in
Snow Depth Not available.
UV 7 out of 12
Pollen Not available.
Air Quality Not available.
Flu Activity Not available.
METAR SCIP 261700Z 32008KT 290V010 9999 SCT020 26/20 Q1020 NOSIG

More Conditions Fewer Conditions

Pressure 30.12 in
Visibility 6.2 miles
Clouds Scattered Clouds 2000 ft
Dew Point 68 °F
Humidity 69%
Rainfall 0.00 in
Snow Depth Not available.
UV 7 out of 12
Pollen Not available.
Air Quality Not available.
Flu Activity Not available.
METAR SCIP 261700Z 32008KT 290V010 9999 SCT020 26/20 Q1020 NOSIG

More Conditions Fewer Conditions

10-Day Weather Forecast

Almanac

Astronomy

Jan. 26, 2015 Rise Set
Actual Time
Civil Twilight
Nautical Twilight
Astronomical Twilight
Moon
Length of Visible Light
Length of Day
Tomorrow will be .
, % of the Moon is Illuminated

Today's Extremes

Country Highs Country Lows

Community

WunderPhotos

Upload Photos

1,790,298 photos uploaded!

WunderBlogs® & News

Nearby

Air Quality

  Air Quality AQ Index Pollutant
Not available.

Snow Depth

Station Depth Elevation

Earthquake Activity

City Distance Mag. Time & Date
Minimum magnitude displayed is 2.5.

Coastal Water Temperatures

Place Temperature

Nearby Weather Stations